createdAt,value
2024-03-04T00:00:45.777Z,14.82
2024-03-04T00:03:12.142Z,15.40
2024-03-04T00:05:38.481Z,14.18
2024-03-04T00:08:04.857Z,14.85
2024-03-04T00:10:31.361Z,14.10
2024-03-04T00:12:58.540Z,13.85
2024-03-04T00:15:25.099Z,13.52
2024-03-04T00:17:54.504Z,14.68
2024-03-04T00:20:20.957Z,12.88
2024-03-04T00:22:48.579Z,13.30
2024-03-04T00:25:17.282Z,12.48
2024-03-04T00:27:44.500Z,11.75
2024-03-04T00:30:11.202Z,11.32
2024-03-04T00:32:37.696Z,9.70
2024-03-04T00:35:06.793Z,10.10
2024-03-04T00:37:33.744Z,9.60
2024-03-04T00:40:00.275Z,9.80
2024-03-04T00:42:28.420Z,9.55
2024-03-04T00:44:56.459Z,9.48
2024-03-04T00:47:22.920Z,9.13
2024-03-04T00:49:49.266Z,9.35
2024-03-04T00:52:18.203Z,8.82
2024-03-04T00:54:44.667Z,9.93
2024-03-04T00:57:11.961Z,8.80
2024-03-04T00:59:39.027Z,8.95
2024-03-04T01:02:06.685Z,9.18
2024-03-04T01:04:33.519Z,8.57
2024-03-04T01:07:00.007Z,10.38
2024-03-04T01:09:26.626Z,8.18
2024-03-04T01:11:54.292Z,9.60
2024-03-04T01:14:20.987Z,10.25
2024-03-04T01:16:50.350Z,12.23
2024-03-04T01:19:17.713Z,11.52
2024-03-04T01:21:44.287Z,12.65
2024-03-04T01:24:11.753Z,14.77
2024-03-04T01:26:38.115Z,13.40
2024-03-04T01:29:04.504Z,15.18
2024-03-04T01:31:31.023Z,15.93
2024-03-04T01:33:57.574Z,15.90
2024-03-04T01:36:23.981Z,15.65
2024-03-04T01:38:50.394Z,15.63
2024-03-04T01:41:16.727Z,15.90
2024-03-04T01:43:43.203Z,17.00
2024-03-04T01:46:09.751Z,15.45
2024-03-04T01:48:36.824Z,17.63
2024-03-04T01:51:03.281Z,17.92
2024-03-04T01:53:29.710Z,16.48
2024-03-04T01:56:01.510Z,14.15
2024-03-04T01:58:28.471Z,12.98
2024-03-04T02:00:55.941Z,10.50
2024-03-04T02:03:24.061Z,10.35
2024-03-04T02:05:50.744Z,8.77
2024-03-04T02:08:17.762Z,7.20
2024-03-04T02:10:45.400Z,6.90
2024-03-04T02:13:12.001Z,5.70
2024-03-04T02:15:41.171Z,5.38
2024-03-04T02:18:08.391Z,6.28
2024-03-04T02:20:46.011Z,4.65
2024-03-04T02:23:13.546Z,4.45
2024-03-04T02:25:51.199Z,5.32
2024-03-04T02:28:18.366Z,4.93
2024-03-04T02:30:44.845Z,4.68
2024-03-04T02:33:11.463Z,5.50
2024-03-04T02:35:38.573Z,5.10
2024-03-04T02:38:05.358Z,5.00
2024-03-04T02:40:31.766Z,5.25
2024-03-04T02:42:58.260Z,4.93
2024-03-04T02:45:24.794Z,4.57
2024-03-04T02:47:51.239Z,4.45
2024-03-04T02:50:17.677Z,4.40
2024-03-04T02:52:45.364Z,5.00
2024-03-04T02:55:11.816Z,4.40
2024-03-04T02:57:38.280Z,4.78
2024-03-04T03:00:07.311Z,4.78
2024-03-04T03:02:33.669Z,6.90
2024-03-04T03:05:00.232Z,5.22
2024-03-04T03:07:26.773Z,5.65
2024-03-04T03:09:53.167Z,5.32
2024-03-04T03:12:19.573Z,5.68
2024-03-04T03:14:45.930Z,5.75
2024-03-04T03:17:12.264Z,7.05
2024-03-04T03:19:39.637Z,5.40
2024-03-04T03:22:06.064Z,5.30
2024-03-04T03:24:32.437Z,6.32
2024-03-04T03:26:58.821Z,6.28
2024-03-04T03:29:25.254Z,5.80
2024-03-04T03:31:51.650Z,5.88
2024-03-04T03:34:18.182Z,6.28
2024-03-04T03:36:44.692Z,5.22
2024-03-04T03:39:11.143Z,5.22
2024-03-04T03:41:38.038Z,5.07
2024-03-04T03:44:04.466Z,5.15
2024-03-04T03:46:31.205Z,5.05
2024-03-04T03:48:57.832Z,6.57
2024-03-04T03:51:24.309Z,5.88
2024-03-04T03:53:50.743Z,5.13
2024-03-04T03:56:18.191Z,5.38
2024-03-04T03:58:44.539Z,5.07
2024-03-04T04:01:11.602Z,4.70
2024-03-04T04:03:38.292Z,4.20
2024-03-04T04:06:04.697Z,4.05
2024-03-04T04:08:31.249Z,3.17
2024-03-04T04:10:57.841Z,3.97
2024-03-04T04:13:24.267Z,3.25
2024-03-04T04:15:51.060Z,3.67
2024-03-04T04:18:17.751Z,3.65
2024-03-04T04:20:44.371Z,3.65
2024-03-04T04:23:10.710Z,3.70
2024-03-04T04:25:37.086Z,3.38
2024-03-04T04:28:04.167Z,3.38
2024-03-04T04:30:30.607Z,3.30
2024-03-04T04:32:56.994Z,2.70
2024-03-04T04:35:23.317Z,2.83
2024-03-04T04:37:49.666Z,2.70
2024-03-04T04:40:22.182Z,2.42
2024-03-04T04:42:48.541Z,3.30
2024-03-04T04:45:14.888Z,3.05
2024-03-04T04:47:41.293Z,2.25
2024-03-04T04:50:07.843Z,2.50
2024-03-04T04:52:34.278Z,2.90
2024-03-04T04:55:00.639Z,2.95
2024-03-04T04:57:27.119Z,3.00
2024-03-04T04:59:53.491Z,2.58
2024-03-04T05:02:20.225Z,2.75
2024-03-04T05:04:54.522Z,2.40
2024-03-04T05:07:27.076Z,2.50
2024-03-04T05:09:54.362Z,2.60
2024-03-04T05:12:21.139Z,2.03
2024-03-04T05:14:47.631Z,2.58
2024-03-04T05:17:14.172Z,2.03
2024-03-04T05:19:40.541Z,2.38
2024-03-04T05:22:08.397Z,2.35
2024-03-04T05:24:35.003Z,1.90
2024-03-04T05:27:01.628Z,2.20
2024-03-04T05:29:27.981Z,2.10
2024-03-04T05:31:55.157Z,2.33
2024-03-04T05:34:21.974Z,2.00
2024-03-04T05:36:49.248Z,1.92
2024-03-04T05:39:22.472Z,1.77
2024-03-04T05:41:51.985Z,1.65
2024-03-04T05:44:18.827Z,1.85
2024-03-04T05:46:45.448Z,2.38
2024-03-04T05:49:13.033Z,1.50
2024-03-04T05:51:41.106Z,1.77
2024-03-04T05:54:07.679Z,1.70
2024-03-04T05:56:34.036Z,1.45
2024-03-04T05:59:00.576Z,1.50
2024-03-04T06:01:26.981Z,1.52
2024-03-04T06:03:53.474Z,1.30
2024-03-04T06:06:19.931Z,2.33
2024-03-04T06:08:46.256Z,1.73
2024-03-04T06:11:13.469Z,1.90
2024-03-04T06:13:39.961Z,1.80
2024-03-04T06:16:06.410Z,1.48
2024-03-04T06:18:32.869Z,1.63
2024-03-04T06:21:00.705Z,1.48
2024-03-04T06:23:27.061Z,1.05
2024-03-04T06:25:53.756Z,1.80
2024-03-04T06:28:20.085Z,1.70
2024-03-04T06:30:48.213Z,1.42
2024-03-04T06:33:14.508Z,1.13
2024-03-04T06:35:40.860Z,1.08
2024-03-04T06:38:07.278Z,1.33
2024-03-04T06:40:34.008Z,1.58
2024-03-04T06:43:00.778Z,1.70
2024-03-04T06:45:28.783Z,1.25
2024-03-04T06:47:57.796Z,1.23
2024-03-04T06:50:24.137Z,1.17
2024-03-04T06:52:50.530Z,0.95
2024-03-04T06:55:16.883Z,1.67
2024-03-04T06:57:43.204Z,1.50
2024-03-04T07:00:13.164Z,1.50
2024-03-04T07:02:39.662Z,1.23
2024-03-04T07:05:06.074Z,1.70
2024-03-04T07:07:32.448Z,1.33
2024-03-04T07:09:58.895Z,1.40
2024-03-04T07:12:25.357Z,1.27
2024-03-04T07:14:51.768Z,1.25
2024-03-04T07:17:18.173Z,1.08
2024-03-04T07:19:44.609Z,1.13
2024-03-04T07:22:11.032Z,0.90
2024-03-04T07:24:37.359Z,1.00
2024-03-04T07:27:03.750Z,1.02
2024-03-04T07:29:37.992Z,1.20
2024-03-04T07:32:07.987Z,0.75
2024-03-04T07:34:34.441Z,0.95
2024-03-04T07:37:00.968Z,0.93
2024-03-04T07:39:27.819Z,0.73
2024-03-04T07:41:54.195Z,0.88
2024-03-04T07:44:20.536Z,0.90
2024-03-04T07:46:48.846Z,1.33
2024-03-04T07:49:15.372Z,0.80
2024-03-04T07:51:41.696Z,1.08
2024-03-04T07:54:08.150Z,0.85
2024-03-04T07:56:34.784Z,1.00
2024-03-04T07:59:01.662Z,0.60
2024-03-04T08:01:28.322Z,1.20
2024-03-04T08:03:54.821Z,0.80
2024-03-04T08:06:21.421Z,1.20
2024-03-04T08:08:49.592Z,1.40
2024-03-04T08:11:16.210Z,1.15
2024-03-04T08:13:42.660Z,1.20
2024-03-04T08:16:10.103Z,1.10
2024-03-04T08:18:36.623Z,0.88
2024-03-04T08:21:03.389Z,1.20
2024-03-04T08:23:29.771Z,0.88
2024-03-04T08:25:56.161Z,0.93
2024-03-04T08:28:28.829Z,1.00
2024-03-04T08:31:01.790Z,0.80
2024-03-04T08:33:29.421Z,0.90
2024-03-04T08:35:55.915Z,0.93
2024-03-04T08:38:22.333Z,1.30
2024-03-04T08:40:48.905Z,0.82
2024-03-04T08:43:15.404Z,1.17
2024-03-04T08:45:41.831Z,1.05
2024-03-04T08:48:09.360Z,1.08
2024-03-04T08:50:35.838Z,0.80
2024-03-04T08:53:02.242Z,0.50
2024-03-04T08:55:29.196Z,1.20
2024-03-04T08:57:55.870Z,0.47
2024-03-04T09:00:22.370Z,0.40
2024-03-04T09:02:48.803Z,0.63
2024-03-04T09:05:15.323Z,0.47
2024-03-04T09:07:41.792Z,0.45
2024-03-04T09:10:08.641Z,0.82
2024-03-04T09:12:35.194Z,0.40
2024-03-04T09:15:01.784Z,0.52
2024-03-04T09:17:28.189Z,0.60
2024-03-04T09:19:56.946Z,0.55
2024-03-04T09:22:24.243Z,0.40
2024-03-04T09:24:50.687Z,0.32
2024-03-04T09:27:17.049Z,0.40
2024-03-04T09:29:43.458Z,0.73
2024-03-04T09:32:09.906Z,0.50
2024-03-04T09:34:36.319Z,0.57
2024-03-04T09:37:03.198Z,0.75
2024-03-04T09:39:29.712Z,0.70
2024-03-04T09:41:56.787Z,0.70
2024-03-04T09:44:25.756Z,0.65
2024-03-04T09:46:52.538Z,0.70
2024-03-04T09:49:19.930Z,0.95
2024-03-04T09:51:46.517Z,1.00
2024-03-04T09:54:15.326Z,0.75
2024-03-04T09:56:41.839Z,1.25
2024-03-04T09:59:08.250Z,1.42
2024-03-04T10:01:37.202Z,1.05
2024-03-04T10:04:04.523Z,1.00
2024-03-04T10:06:31.015Z,1.27
2024-03-04T10:08:57.352Z,1.08
2024-03-04T10:11:23.696Z,1.35
2024-03-04T10:13:51.032Z,0.90
2024-03-04T10:16:17.504Z,1.35
2024-03-04T10:18:58.765Z,1.23
2024-03-04T10:21:33.364Z,1.83
2024-03-04T10:24:00.551Z,1.17
2024-03-04T10:26:28.145Z,1.15
2024-03-04T10:28:54.505Z,1.13
2024-03-04T10:31:21.012Z,0.88
2024-03-04T10:33:47.424Z,1.38
2024-03-04T10:36:14.981Z,1.42
2024-03-04T10:38:43.198Z,1.42
2024-03-04T10:41:16.569Z,1.50
2024-03-04T10:43:43.412Z,1.20
2024-03-04T10:46:10.040Z,1.63
2024-03-04T10:48:36.931Z,1.00
2024-03-04T10:51:03.365Z,1.20
2024-03-04T10:53:29.715Z,1.40
2024-03-04T10:56:02.027Z,1.30
2024-03-04T10:58:31.239Z,1.58
2024-03-04T11:00:58.183Z,1.30
2024-03-04T11:03:25.057Z,1.08
2024-03-04T11:05:53.725Z,1.67
2024-03-04T11:08:33.003Z,1.30
2024-03-04T11:11:02.247Z,1.35
2024-03-04T11:13:36.110Z,1.45
2024-03-04T11:16:02.533Z,1.30
2024-03-04T11:18:37.784Z,1.42
2024-03-04T11:21:05.021Z,1.50
2024-03-04T11:23:32.277Z,1.40
2024-03-04T11:25:59.230Z,1.10
2024-03-04T11:28:26.470Z,1.42
2024-03-04T11:30:52.785Z,1.60
2024-03-04T11:33:35.808Z,1.17
2024-03-04T11:36:02.304Z,1.27
2024-03-04T11:38:28.694Z,1.30
2024-03-04T11:40:58.742Z,1.00
2024-03-04T11:43:43.709Z,1.38
2024-03-04T11:46:18.674Z,1.40
2024-03-04T11:48:47.708Z,1.33
2024-03-04T11:51:14.376Z,1.30
2024-03-04T11:53:44.549Z,1.20
2024-03-04T11:56:10.928Z,1.40
2024-03-04T11:58:38.887Z,1.67
2024-03-04T12:01:13.059Z,1.30
2024-03-04T12:03:52.196Z,1.30
2024-03-04T12:06:18.573Z,1.10
2024-03-04T12:08:59.556Z,1.83
2024-03-04T12:11:33.022Z,1.33
2024-03-04T12:13:59.559Z,1.38
2024-03-04T12:16:26.137Z,1.25
2024-03-04T12:18:52.488Z,1.38
2024-03-04T12:21:21.904Z,1.40
2024-03-04T12:23:48.260Z,1.75
2024-03-04T12:26:15.110Z,1.70
2024-03-04T12:28:41.636Z,1.58
2024-03-04T12:31:14.546Z,1.40
2024-03-04T12:33:41.748Z,1.55
2024-03-04T12:36:08.599Z,1.75
2024-03-04T12:38:35.443Z,1.73
2024-03-04T12:41:01.813Z,1.60
2024-03-04T12:43:28.178Z,1.73
2024-03-04T12:45:55.066Z,2.00
2024-03-04T12:48:24.866Z,1.63
2024-03-04T12:50:51.179Z,1.90
2024-03-04T12:53:21.606Z,1.58
2024-03-04T12:55:49.030Z,1.80
2024-03-04T12:58:15.545Z,1.80
2024-03-04T13:00:43.166Z,1.65
2024-03-04T13:03:09.586Z,1.70
2024-03-04T13:05:35.950Z,1.85
2024-03-04T13:08:02.666Z,1.65
2024-03-04T13:10:29.173Z,1.60
2024-03-04T13:12:56.089Z,1.45
2024-03-04T13:15:22.661Z,1.67
2024-03-04T13:17:49.252Z,1.80
2024-03-04T13:20:16.403Z,1.40
2024-03-04T13:22:45.794Z,1.58
2024-03-04T13:25:12.440Z,1.60
2024-03-04T13:27:39.705Z,1.55
2024-03-04T13:30:06.936Z,1.80
2024-03-04T13:32:33.351Z,1.70
2024-03-04T13:34:59.868Z,1.70
2024-03-04T13:37:26.631Z,1.92
2024-03-04T13:39:53.144Z,1.42
2024-03-04T13:42:20.904Z,1.63
2024-03-04T13:44:47.402Z,1.70
2024-03-04T13:47:14.384Z,1.20
2024-03-04T13:49:40.835Z,1.38
2024-03-04T13:52:07.468Z,1.65
2024-03-04T13:54:35.132Z,1.80
2024-03-04T13:57:02.179Z,1.55
2024-03-04T13:59:29.874Z,1.70
2024-03-04T14:01:58.638Z,1.75
2024-03-04T14:04:26.006Z,1.70
2024-03-04T14:06:54.722Z,1.20
2024-03-04T14:09:21.108Z,1.45
2024-03-04T14:11:47.946Z,1.60
2024-03-04T14:14:14.737Z,1.50
2024-03-04T14:16:41.446Z,1.38
2024-03-04T14:19:07.832Z,1.40
2024-03-04T14:21:34.199Z,1.70
2024-03-04T14:24:00.643Z,1.30
2024-03-04T14:26:27.225Z,1.50
2024-03-04T14:28:53.632Z,1.48
2024-03-04T14:31:20.348Z,1.67
2024-03-04T14:33:47.383Z,1.63
2024-03-04T14:36:14.400Z,1.70
2024-03-04T14:38:40.876Z,1.63
2024-03-04T14:41:07.273Z,1.95
2024-03-04T14:43:33.809Z,1.90
2024-03-04T14:46:00.650Z,1.80
2024-03-04T14:48:27.293Z,1.48
2024-03-04T14:50:53.672Z,1.50
2024-03-04T14:53:19.991Z,2.20
2024-03-04T14:55:46.556Z,1.40
2024-03-04T14:58:13.201Z,1.67
2024-03-04T15:00:39.572Z,1.40
2024-03-04T15:03:06.052Z,1.50
2024-03-04T15:05:34.514Z,1.52
2024-03-04T15:08:01.283Z,1.88
2024-03-04T15:10:27.811Z,1.52
2024-03-04T15:12:54.467Z,1.92
2024-03-04T15:15:24.031Z,1.70
2024-03-04T15:17:50.529Z,1.48
2024-03-04T15:20:18.960Z,1.70
2024-03-04T15:22:46.826Z,1.52
2024-03-04T15:25:15.949Z,1.20
2024-03-04T15:27:43.326Z,1.33
2024-03-04T15:30:10.143Z,1.30
2024-03-04T15:32:39.728Z,1.60
2024-03-04T15:35:11.522Z,1.60
2024-03-04T15:37:38.450Z,1.88
2024-03-04T15:40:06.791Z,1.70
2024-03-04T15:42:36.249Z,1.33
2024-03-04T15:45:02.919Z,1.40
2024-03-04T15:47:30.077Z,1.48
2024-03-04T15:49:57.162Z,1.27
2024-03-04T15:52:23.571Z,1.55
2024-03-04T15:54:49.948Z,1.50
2024-03-04T15:57:16.429Z,1.50
2024-03-04T15:59:43.331Z,1.10
2024-03-04T16:02:09.786Z,1.35
2024-03-04T16:04:36.270Z,1.65
2024-03-04T16:07:02.817Z,1.10
2024-03-04T16:09:34.820Z,1.05
2024-03-04T16:12:01.608Z,1.30
2024-03-04T16:14:28.076Z,1.30
2024-03-04T16:16:54.972Z,1.35
2024-03-04T16:19:21.384Z,1.08
2024-03-04T16:21:48.404Z,1.10
2024-03-04T16:24:14.804Z,1.30
2024-03-04T16:26:41.138Z,1.27
2024-03-04T16:29:07.512Z,1.10
2024-03-04T16:31:35.168Z,0.82
2024-03-04T16:34:01.720Z,1.10
2024-03-04T16:36:28.132Z,1.73
2024-03-04T16:38:54.485Z,1.85
2024-03-04T16:41:21.897Z,1.30
2024-03-04T16:43:49.338Z,2.10
2024-03-04T16:46:15.950Z,1.02
2024-03-04T16:48:42.324Z,1.45
2024-03-04T16:51:14.900Z,1.50
2024-03-04T16:53:41.310Z,1.40
2024-03-04T16:56:11.043Z,1.58
2024-03-04T16:58:38.791Z,1.50
2024-03-04T17:01:06.091Z,1.42
2024-03-04T17:03:32.802Z,1.40
2024-03-04T17:05:59.178Z,1.50
2024-03-04T17:08:25.598Z,1.25
2024-03-04T17:10:53.045Z,1.27
2024-03-04T17:13:19.903Z,1.40
2024-03-04T17:15:46.206Z,1.58
2024-03-04T17:18:13.455Z,1.58
2024-03-04T17:20:39.895Z,1.42
2024-03-04T17:23:06.239Z,1.83
2024-03-04T17:25:32.708Z,1.40
2024-03-04T17:27:59.122Z,1.35
2024-03-04T17:30:25.583Z,1.55
2024-03-04T17:32:51.973Z,1.40
2024-03-04T17:35:18.447Z,1.60
2024-03-04T17:37:44.885Z,1.48
2024-03-04T17:40:11.443Z,1.38
2024-03-04T17:42:37.982Z,1.60
2024-03-04T17:45:05.432Z,1.50
2024-03-04T17:47:31.789Z,1.73
2024-03-04T17:49:58.257Z,1.60
2024-03-04T17:52:24.712Z,1.85
2024-03-04T17:54:51.061Z,1.58
2024-03-04T17:57:17.936Z,1.70
2024-03-04T17:59:44.648Z,1.30
2024-03-04T18:02:11.164Z,1.75
2024-03-04T18:04:37.814Z,1.48
2024-03-04T18:07:04.407Z,1.50
2024-03-04T18:09:30.816Z,1.73
2024-03-04T18:11:57.336Z,1.58
2024-03-04T18:14:23.845Z,1.73
2024-03-04T18:16:50.517Z,1.90
2024-03-04T18:19:17.334Z,1.60
2024-03-04T18:21:45.619Z,1.77
2024-03-04T18:24:12.360Z,1.70
2024-03-04T18:26:38.815Z,1.70
2024-03-04T18:29:05.492Z,1.70
2024-03-04T18:31:35.001Z,2.00
2024-03-04T18:34:02.183Z,1.80
2024-03-04T18:36:28.777Z,3.10
2024-03-04T18:38:56.346Z,2.13
2024-03-04T18:41:22.975Z,2.30
2024-03-04T18:43:49.606Z,2.13
2024-03-04T18:46:16.087Z,2.00
2024-03-04T18:48:43.136Z,2.00
2024-03-04T18:51:09.979Z,2.20
2024-03-04T18:53:36.605Z,1.98
2024-03-04T18:56:08.380Z,2.30
2024-03-04T18:58:36.308Z,1.70
2024-03-04T19:01:02.722Z,1.67
2024-03-04T19:03:29.209Z,2.22
2024-03-04T19:05:55.908Z,2.15
2024-03-04T19:08:22.440Z,2.22
2024-03-04T19:10:58.114Z,2.25
2024-03-04T19:13:29.755Z,2.20
2024-03-04T19:15:56.277Z,1.80
2024-03-04T19:18:25.859Z,2.50
2024-03-04T19:20:52.469Z,2.10
2024-03-04T19:23:19.177Z,2.42
2024-03-04T19:25:45.935Z,2.97
2024-03-04T19:28:13.766Z,2.40
2024-03-04T19:30:44.988Z,3.20
2024-03-04T19:33:12.328Z,3.30
2024-03-04T19:35:39.151Z,3.20
2024-03-04T19:38:05.495Z,3.05
2024-03-04T19:40:32.711Z,2.90
2024-03-04T19:42:59.191Z,3.60
2024-03-04T19:45:27.319Z,3.55
2024-03-04T19:47:54.191Z,3.97
2024-03-04T19:50:21.887Z,4.38
2024-03-04T19:52:48.327Z,4.60
2024-03-04T19:55:15.222Z,4.03
2024-03-04T19:57:41.605Z,4.72
2024-03-04T20:00:10.837Z,5.40
2024-03-04T20:02:38.040Z,6.43
2024-03-04T20:05:04.786Z,7.55
2024-03-04T20:07:31.461Z,7.25
2024-03-04T20:09:59.131Z,6.80
2024-03-04T20:12:26.737Z,7.68
2024-03-04T20:14:53.610Z,6.20
2024-03-04T20:17:19.941Z,5.80
2024-03-04T20:19:46.493Z,6.03
2024-03-04T20:22:12.997Z,5.28
2024-03-04T20:24:39.500Z,5.53
2024-03-04T20:27:05.840Z,5.00
2024-03-04T20:29:32.902Z,5.43
2024-03-04T20:31:59.320Z,5.32
2024-03-04T20:34:26.377Z,5.47
2024-03-04T20:36:52.844Z,5.30
2024-03-04T20:39:19.947Z,5.43
2024-03-04T20:41:46.707Z,5.82
2024-03-04T20:44:13.096Z,5.63
2024-03-04T20:46:39.595Z,4.63
2024-03-04T20:49:05.993Z,4.90
2024-03-04T20:51:32.530Z,4.97
2024-03-04T20:53:59.173Z,4.70
2024-03-04T20:56:27.195Z,4.93
2024-03-04T20:58:53.690Z,5.15
2024-03-04T21:01:20.149Z,5.07
2024-03-04T21:03:46.674Z,4.43
2024-03-04T21:06:14.001Z,4.65
2024-03-04T21:08:40.339Z,4.90
2024-03-04T21:11:06.873Z,5.32
2024-03-04T21:13:33.335Z,5.15
2024-03-04T21:15:59.818Z,5.20
2024-03-04T21:18:26.472Z,4.60
2024-03-04T21:20:52.946Z,4.20
2024-03-04T21:23:19.441Z,4.72
2024-03-04T21:25:47.598Z,4.57
2024-03-04T21:28:14.276Z,4.13
2024-03-04T21:30:40.773Z,4.32
2024-03-04T21:33:08.262Z,5.53
2024-03-04T21:35:36.747Z,4.57
2024-03-04T21:38:03.130Z,4.88
2024-03-04T21:40:29.620Z,4.93
2024-03-04T21:42:56.343Z,4.95
2024-03-04T21:45:22.688Z,4.25
2024-03-04T21:47:49.881Z,4.40
2024-03-04T21:50:17.801Z,3.95
2024-03-04T21:52:44.613Z,5.32
2024-03-04T21:55:14.079Z,4.75
2024-03-04T21:57:41.096Z,5.30
2024-03-04T22:00:16.058Z,3.83
2024-03-04T22:05:11.382Z,5.20
2024-03-04T22:07:39.134Z,4.40
2024-03-04T22:10:05.760Z,5.22
2024-03-04T22:12:32.111Z,4.95
2024-03-04T22:14:58.445Z,5.50
2024-03-04T22:17:24.891Z,5.75
2024-03-04T22:19:53.755Z,5.20
2024-03-04T22:22:21.059Z,5.57
2024-03-04T22:24:47.425Z,4.93
2024-03-04T22:27:14.776Z,4.90
2024-03-04T22:29:41.139Z,5.75
2024-03-04T22:32:07.581Z,4.78
2024-03-04T22:34:34.028Z,5.63
2024-03-04T22:37:00.548Z,5.15
2024-03-04T22:39:27.359Z,5.10
2024-03-04T22:41:53.779Z,5.97
2024-03-04T22:44:20.194Z,5.15
2024-03-04T22:46:46.576Z,5.53
2024-03-04T22:49:13.018Z,5.10
2024-03-04T22:51:39.927Z,6.15
2024-03-04T22:54:06.280Z,5.82
2024-03-04T22:56:34.060Z,6.20
2024-03-04T22:59:00.730Z,5.78
2024-03-04T23:01:31.054Z,6.35
2024-03-04T23:03:58.067Z,6.45
2024-03-04T23:06:24.674Z,5.90
2024-03-04T23:08:51.467Z,6.38
2024-03-04T23:11:18.361Z,6.55
2024-03-04T23:13:46.354Z,6.20
2024-03-04T23:16:13.875Z,6.10
2024-03-04T23:18:40.623Z,6.93
2024-03-04T23:21:07.476Z,6.90
2024-03-04T23:23:33.862Z,7.50
2024-03-04T23:26:00.528Z,7.05
2024-03-04T23:28:27.403Z,7.50
2024-03-04T23:30:53.940Z,6.95
2024-03-04T23:33:20.288Z,6.38
2024-03-04T23:35:46.595Z,6.90
2024-03-04T23:38:12.934Z,6.75
2024-03-04T23:40:39.301Z,6.88
2024-03-04T23:43:05.679Z,7.00
2024-03-04T23:45:32.045Z,7.38
2024-03-04T23:48:00.023Z,6.53
2024-03-04T23:50:26.822Z,6.82
2024-03-04T23:52:53.250Z,7.05
2024-03-04T23:55:19.649Z,7.55
2024-03-04T23:57:46.106Z,7.25
